sensor_id;sensor_type;location;lat;lon;timestamp;temperature;humidity
39951;DHT22;25629;51.444;-2.606;2022-12-18T00:00:59;-0.70;99.90
39951;DHT22;25629;51.444;-2.606;2022-12-18T00:03:26;-0.60;99.90
39951;DHT22;25629;51.444;-2.606;2022-12-18T00:05:52;-0.70;99.90
39951;DHT22;25629;51.444;-2.606;2022-12-18T00:08:18;-0.70;99.90
39951;DHT22;25629;51.444;-2.606;2022-12-18T00:10:44;-0.70;99.90
39951;DHT22;25629;51.444;-2.606;2022-12-18T00:13:11;-0.70;99.90
39951;DHT22;25629;51.444;-2.606;2022-12-18T00:15:38;-0.70;99.90
39951;DHT22;25629;51.444;-2.606;2022-12-18T00:18:04;-0.70;99.90
39951;DHT22;25629;51.444;-2.606;2022-12-18T00:20:30;-0.70;99.90
39951;DHT22;25629;51.444;-2.606;2022-12-18T00:22:56;-0.70;99.90
39951;DHT22;25629;51.444;-2.606;2022-12-18T00:25:22;-0.60;99.90
39951;DHT22;25629;51.444;-2.606;2022-12-18T00:27:48;-0.60;99.90
39951;DHT22;25629;51.444;-2.606;2022-12-18T00:30:14;-0.60;99.90
39951;DHT22;25629;51.444;-2.606;2022-12-18T00:32:40;-0.50;99.90
39951;DHT22;25629;51.444;-2.606;2022-12-18T00:35:06;-0.50;99.90
39951;DHT22;25629;51.444;-2.606;2022-12-18T00:37:33;-0.40;99.90
39951;DHT22;25629;51.444;-2.606;2022-12-18T00:39:59;-0.40;99.90
39951;DHT22;25629;51.444;-2.606;2022-12-18T00:42:25;-0.40;99.90
39951;DHT22;25629;51.444;-2.606;2022-12-18T00:45:09;-0.50;99.90
39951;DHT22;25629;51.444;-2.606;2022-12-18T00:47:35;-0.50;99.90
39951;DHT22;25629;51.444;-2.606;2022-12-18T00:50:00;-0.40;99.90
39951;DHT22;25629;51.444;-2.606;2022-12-18T00:52:26;-0.40;99.90
39951;DHT22;25629;51.444;-2.606;2022-12-18T00:54:52;-0.30;99.90
39951;DHT22;25629;51.444;-2.606;2022-12-18T00:57:17;-0.30;99.90
39951;DHT22;25629;51.444;-2.606;2022-12-18T00:59:43;-0.20;99.90
39951;DHT22;25629;51.444;-2.606;2022-12-18T01:02:09;-0.10;99.90
39951;DHT22;25629;51.444;-2.606;2022-12-18T01:04:34;-0.10;99.90
39951;DHT22;25629;51.444;-2.606;2022-12-18T01:07:00;-0.10;99.90
39951;DHT22;25629;51.444;-2.606;2022-12-18T01:09:26;0.00;99.90
39951;DHT22;25629;51.444;-2.606;2022-12-18T01:11:52;-0.10;99.90
39951;DHT22;25629;51.444;-2.606;2022-12-18T01:14:17;0.00;99.90
39951;DHT22;25629;51.444;-2.606;2022-12-18T01:16:43;0.10;99.90
39951;DHT22;25629;51.444;-2.606;2022-12-18T01:19:09;0.00;99.90
39951;DHT22;25629;51.444;-2.606;2022-12-18T01:21:35;0.00;99.90
39951;DHT22;25629;51.444;-2.606;2022-12-18T01:24:01;-0.10;99.90
39951;DHT22;25629;51.444;-2.606;2022-12-18T01:26:27;-0.10;99.90
39951;DHT22;25629;51.444;-2.606;2022-12-18T01:28:55;-0.10;99.90
39951;DHT22;25629;51.444;-2.606;2022-12-18T01:31:28;-0.20;99.90
39951;DHT22;25629;51.444;-2.606;2022-12-18T01:33:55;-0.20;99.90
39951;DHT22;25629;51.444;-2.606;2022-12-18T01:36:22;-0.30;99.90
39951;DHT22;25629;51.444;-2.606;2022-12-18T01:38:49;-0.30;99.90
39951;DHT22;25629;51.444;-2.606;2022-12-18T01:41:19;-0.40;99.90
39951;DHT22;25629;51.444;-2.606;2022-12-18T01:43:56;-0.40;99.90
39951;DHT22;25629;51.444;-2.606;2022-12-18T01:46:24;-0.40;99.90
39951;DHT22;25629;51.444;-2.606;2022-12-18T01:48:53;-0.50;99.90
39951;DHT22;25629;51.444;-2.606;2022-12-18T01:51:20;-0.50;99.90
39951;DHT22;25629;51.444;-2.606;2022-12-18T01:53:47;-0.50;99.90
39951;DHT22;25629;51.444;-2.606;2022-12-18T01:56:15;-0.50;99.90
39951;DHT22;25629;51.444;-2.606;2022-12-18T01:58:55;-0.60;99.90
39951;DHT22;25629;51.444;-2.606;2022-12-18T02:01:24;-0.50;99.90
39951;DHT22;25629;51.444;-2.606;2022-12-18T02:03:50;-0.60;99.90
39951;DHT22;25629;51.444;-2.606;2022-12-18T02:06:28;-0.50;99.90
39951;DHT22;25629;51.444;-2.606;2022-12-18T02:09:10;-0.40;99.90
39951;DHT22;25629;51.444;-2.606;2022-12-18T02:14:23;-0.30;99.90
39951;DHT22;25629;51.444;-2.606;2022-12-18T02:16:52;-0.10;99.90
39951;DHT22;25629;51.444;-2.606;2022-12-18T02:25:32;0.10;99.90
39951;DHT22;25629;51.444;-2.606;2022-12-18T02:28:06;0.20;99.90
39951;DHT22;25629;51.444;-2.606;2022-12-18T02:30:35;0.20;99.90
39951;DHT22;25629;51.444;-2.606;2022-12-18T02:33:04;0.20;99.90
39951;DHT22;25629;51.444;-2.606;2022-12-18T02:35:32;0.30;99.90
39951;DHT22;25629;51.444;-2.606;2022-12-18T02:37:59;0.30;99.90
39951;DHT22;25629;51.444;-2.606;2022-12-18T02:40:27;0.30;99.90
39951;DHT22;25629;51.444;-2.606;2022-12-18T02:42:54;0.30;99.90
39951;DHT22;25629;51.444;-2.606;2022-12-18T02:45:20;0.30;99.90
39951;DHT22;25629;51.444;-2.606;2022-12-18T02:47:48;0.30;99.90
39951;DHT22;25629;51.444;-2.606;2022-12-18T02:50:38;0.30;99.90
39951;DHT22;25629;51.444;-2.606;2022-12-18T02:56:09;0.40;99.90
39951;DHT22;25629;51.444;-2.606;2022-12-18T03:01:46;0.50;99.90
39951;DHT22;25629;51.444;-2.606;2022-12-18T03:04:39;0.60;99.90
39951;DHT22;25629;51.444;-2.606;2022-12-18T03:07:13;0.70;99.90
39951;DHT22;25629;51.444;-2.606;2022-12-18T03:09:43;0.80;99.90
39951;DHT22;25629;51.444;-2.606;2022-12-18T03:12:18;0.90;99.90
39951;DHT22;25629;51.444;-2.606;2022-12-18T03:17:46;1.00;99.90
39951;DHT22;25629;51.444;-2.606;2022-12-18T03:20:18;1.00;99.90
39951;DHT22;25629;51.444;-2.606;2022-12-18T03:22:47;1.10;99.90
39951;DHT22;25629;51.444;-2.606;2022-12-18T03:25:16;1.10;99.90
39951;DHT22;25629;51.444;-2.606;2022-12-18T03:27:47;1.10;99.90
39951;DHT22;25629;51.444;-2.606;2022-12-18T03:30:15;1.20;99.90
39951;DHT22;25629;51.444;-2.606;2022-12-18T03:33:10;1.20;99.90
39951;DHT22;25629;51.444;-2.606;2022-12-18T03:35:40;1.20;99.90
39951;DHT22;25629;51.444;-2.606;2022-12-18T03:38:07;1.20;99.90
39951;DHT22;25629;51.444;-2.606;2022-12-18T03:41:01;1.20;99.90
39951;DHT22;25629;51.444;-2.606;2022-12-18T03:48:59;1.20;99.90
39951;DHT22;25629;51.444;-2.606;2022-12-18T03:51:39;1.20;99.90
39951;DHT22;25629;51.444;-2.606;2022-12-18T03:54:08;1.20;99.90
39951;DHT22;25629;51.444;-2.606;2022-12-18T03:57:00;1.30;99.90
39951;DHT22;25629;51.444;-2.606;2022-12-18T03:59:27;1.40;99.90
39951;DHT22;25629;51.444;-2.606;2022-12-18T04:01:53;1.40;99.90
39951;DHT22;25629;51.444;-2.606;2022-12-18T04:04:24;1.50;99.90
39951;DHT22;25629;51.444;-2.606;2022-12-18T04:06:51;1.60;99.90
39951;DHT22;25629;51.444;-2.606;2022-12-18T04:09:18;1.60;99.90
39951;DHT22;25629;51.444;-2.606;2022-12-18T04:11:46;1.60;99.90
39951;DHT22;25629;51.444;-2.606;2022-12-18T04:14:11;1.60;99.90
39951;DHT22;25629;51.444;-2.606;2022-12-18T04:16:37;1.70;99.90
39951;DHT22;25629;51.444;-2.606;2022-12-18T04:19:03;1.70;99.90
39951;DHT22;25629;51.444;-2.606;2022-12-18T04:21:29;1.70;99.90
39951;DHT22;25629;51.444;-2.606;2022-12-18T04:23:55;1.70;99.90
39951;DHT22;25629;51.444;-2.606;2022-12-18T04:26:20;1.70;99.90
39951;DHT22;25629;51.444;-2.606;2022-12-18T04:28:46;1.70;99.90
39951;DHT22;25629;51.444;-2.606;2022-12-18T04:31:12;1.70;99.90
39951;DHT22;25629;51.444;-2.606;2022-12-18T04:33:37;1.70;99.90
39951;DHT22;25629;51.444;-2.606;2022-12-18T04:36:03;1.70;99.90
39951;DHT22;25629;51.444;-2.606;2022-12-18T04:38:29;1.80;99.90
39951;DHT22;25629;51.444;-2.606;2022-12-18T04:40:55;1.80;99.90
39951;DHT22;25629;51.444;-2.606;2022-12-18T04:43:20;1.80;99.90
39951;DHT22;25629;51.444;-2.606;2022-12-18T04:45:46;1.80;99.90
39951;DHT22;25629;51.444;-2.606;2022-12-18T04:48:12;1.80;99.90
39951;DHT22;25629;51.444;-2.606;2022-12-18T04:50:37;1.90;99.90
39951;DHT22;25629;51.444;-2.606;2022-12-18T04:53:03;1.80;99.90
39951;DHT22;25629;51.444;-2.606;2022-12-18T04:55:29;1.80;99.90
39951;DHT22;25629;51.444;-2.606;2022-12-18T04:57:55;1.80;99.90
39951;DHT22;25629;51.444;-2.606;2022-12-18T05:00:21;1.80;99.90
39951;DHT22;25629;51.444;-2.606;2022-12-18T05:02:47;1.80;99.90
39951;DHT22;25629;51.444;-2.606;2022-12-18T05:05:13;1.90;99.90
39951;DHT22;25629;51.444;-2.606;2022-12-18T05:07:39;1.80;99.90
39951;DHT22;25629;51.444;-2.606;2022-12-18T05:10:08;1.80;99.90
39951;DHT22;25629;51.444;-2.606;2022-12-18T05:12:33;1.90;99.90
39951;DHT22;25629;51.444;-2.606;2022-12-18T05:15:19;2.00;99.90
39951;DHT22;25629;51.444;-2.606;2022-12-18T05:17:45;2.00;99.90
39951;DHT22;25629;51.444;-2.606;2022-12-18T05:20:10;2.00;99.90
39951;DHT22;25629;51.444;-2.606;2022-12-18T05:22:36;2.00;99.90
39951;DHT22;25629;51.444;-2.606;2022-12-18T05:25:02;2.00;99.90
39951;DHT22;25629;51.444;-2.606;2022-12-18T05:27:28;2.10;99.90
39951;DHT22;25629;51.444;-2.606;2022-12-18T05:29:53;2.10;99.90
39951;DHT22;25629;51.444;-2.606;2022-12-18T05:32:19;2.10;99.90
39951;DHT22;25629;51.444;-2.606;2022-12-18T05:34:44;2.10;99.90
39951;DHT22;25629;51.444;-2.606;2022-12-18T05:37:10;2.20;99.90
39951;DHT22;25629;51.444;-2.606;2022-12-18T05:39:36;2.10;99.90
39951;DHT22;25629;51.444;-2.606;2022-12-18T05:42:01;2.20;99.90
39951;DHT22;25629;51.444;-2.606;2022-12-18T05:44:27;2.20;99.90
39951;DHT22;25629;51.444;-2.606;2022-12-18T05:46:53;2.10;99.90
39951;DHT22;25629;51.444;-2.606;2022-12-18T05:49:18;2.10;99.90
39951;DHT22;25629;51.444;-2.606;2022-12-18T05:51:44;2.10;99.90
39951;DHT22;25629;51.444;-2.606;2022-12-18T05:54:10;2.10;99.90
39951;DHT22;25629;51.444;-2.606;2022-12-18T05:56:36;2.20;99.90
39951;DHT22;25629;51.444;-2.606;2022-12-18T05:59:02;2.10;99.90
39951;DHT22;25629;51.444;-2.606;2022-12-18T06:01:27;2.10;99.90
39951;DHT22;25629;51.444;-2.606;2022-12-18T06:03:54;2.20;99.90
39951;DHT22;25629;51.444;-2.606;2022-12-18T06:06:22;2.20;99.90
39951;DHT22;25629;51.444;-2.606;2022-12-18T06:08:49;2.20;99.90
39951;DHT22;25629;51.444;-2.606;2022-12-18T06:11:20;2.20;99.90
39951;DHT22;25629;51.444;-2.606;2022-12-18T06:13:49;2.30;99.90
39951;DHT22;25629;51.444;-2.606;2022-12-18T06:16:15;2.30;99.90
39951;DHT22;25629;51.444;-2.606;2022-12-18T06:18:41;2.30;99.90
39951;DHT22;25629;51.444;-2.606;2022-12-18T06:21:07;2.30;99.90
39951;DHT22;25629;51.444;-2.606;2022-12-18T06:23:32;2.30;99.90
39951;DHT22;25629;51.444;-2.606;2022-12-18T06:25:58;2.30;99.90
39951;DHT22;25629;51.444;-2.606;2022-12-18T06:28:24;2.40;99.90
39951;DHT22;25629;51.444;-2.606;2022-12-18T06:30:50;2.40;99.90
39951;DHT22;25629;51.444;-2.606;2022-12-18T06:33:16;2.40;99.90
39951;DHT22;25629;51.444;-2.606;2022-12-18T06:35:41;2.40;99.90
39951;DHT22;25629;51.444;-2.606;2022-12-18T06:38:07;2.40;99.90
39951;DHT22;25629;51.444;-2.606;2022-12-18T06:40:33;2.40;99.90
39951;DHT22;25629;51.444;-2.606;2022-12-18T06:42:59;2.50;99.90
39951;DHT22;25629;51.444;-2.606;2022-12-18T06:45:25;2.60;99.90
39951;DHT22;25629;51.444;-2.606;2022-12-18T06:47:51;2.60;99.90
39951;DHT22;25629;51.444;-2.606;2022-12-18T06:50:16;2.60;99.90
39951;DHT22;25629;51.444;-2.606;2022-12-18T06:52:42;2.60;99.90
39951;DHT22;25629;51.444;-2.606;2022-12-18T06:55:10;2.60;99.90
39951;DHT22;25629;51.444;-2.606;2022-12-18T06:57:36;2.60;99.90
39951;DHT22;25629;51.444;-2.606;2022-12-18T07:00:03;2.60;99.90
39951;DHT22;25629;51.444;-2.606;2022-12-18T07:02:29;2.70;99.90
39951;DHT22;25629;51.444;-2.606;2022-12-18T07:04:55;2.60;99.90
39951;DHT22;25629;51.444;-2.606;2022-12-18T07:07:20;2.60;99.90
39951;DHT22;25629;51.444;-2.606;2022-12-18T07:09:46;2.60;99.90
39951;DHT22;25629;51.444;-2.606;2022-12-18T07:12:11;2.60;99.90
39951;DHT22;25629;51.444;-2.606;2022-12-18T07:14:37;2.60;99.90
39951;DHT22;25629;51.444;-2.606;2022-12-18T07:17:03;2.70;99.90
39951;DHT22;25629;51.444;-2.606;2022-12-18T07:19:29;2.70;99.90
39951;DHT22;25629;51.444;-2.606;2022-12-18T07:21:55;2.70;99.90
39951;DHT22;25629;51.444;-2.606;2022-12-18T07:24:20;2.80;99.90
39951;DHT22;25629;51.444;-2.606;2022-12-18T07:26:47;2.80;99.90
39951;DHT22;25629;51.444;-2.606;2022-12-18T07:29:12;2.80;99.90
39951;DHT22;25629;51.444;-2.606;2022-12-18T07:31:38;2.80;99.90
39951;DHT22;25629;51.444;-2.606;2022-12-18T07:34:04;2.90;99.90
39951;DHT22;25629;51.444;-2.606;2022-12-18T07:36:30;2.90;99.90
39951;DHT22;25629;51.444;-2.606;2022-12-18T07:38:55;2.90;99.90
39951;DHT22;25629;51.444;-2.606;2022-12-18T07:41:21;2.90;99.90
39951;DHT22;25629;51.444;-2.606;2022-12-18T07:43:47;2.90;99.90
39951;DHT22;25629;51.444;-2.606;2022-12-18T07:46:14;3.00;99.90
39951;DHT22;25629;51.444;-2.606;2022-12-18T07:48:42;3.00;99.90
39951;DHT22;25629;51.444;-2.606;2022-12-18T07:51:08;3.00;99.90
39951;DHT22;25629;51.444;-2.606;2022-12-18T07:53:35;3.00;99.90
39951;DHT22;25629;51.444;-2.606;2022-12-18T07:56:03;3.00;99.90
39951;DHT22;25629;51.444;-2.606;2022-12-18T07:58:30;3.00;99.90
39951;DHT22;25629;51.444;-2.606;2022-12-18T08:01:10;3.00;99.90
39951;DHT22;25629;51.444;-2.606;2022-12-18T08:03:37;3.00;99.90
39951;DHT22;25629;51.444;-2.606;2022-12-18T08:06:05;3.00;99.90
39951;DHT22;25629;51.444;-2.606;2022-12-18T08:08:32;3.00;99.90
39951;DHT22;25629;51.444;-2.606;2022-12-18T08:10:59;3.00;99.90
39951;DHT22;25629;51.444;-2.606;2022-12-18T08:13:25;3.00;99.90
39951;DHT22;25629;51.444;-2.606;2022-12-18T08:16:07;3.00;99.90
39951;DHT22;25629;51.444;-2.606;2022-12-18T08:18:34;3.10;99.90
39951;DHT22;25629;51.444;-2.606;2022-12-18T08:21:10;3.10;99.90
39951;DHT22;25629;51.444;-2.606;2022-12-18T08:23:36;3.10;99.90
39951;DHT22;25629;51.444;-2.606;2022-12-18T08:26:02;3.10;99.90
39951;DHT22;25629;51.444;-2.606;2022-12-18T08:28:28;3.10;99.90
39951;DHT22;25629;51.444;-2.606;2022-12-18T08:30:53;3.10;99.90
39951;DHT22;25629;51.444;-2.606;2022-12-18T08:33:19;3.10;99.90
39951;DHT22;25629;51.444;-2.606;2022-12-18T08:35:45;3.10;99.90
39951;DHT22;25629;51.444;-2.606;2022-12-18T08:38:10;3.10;99.90
39951;DHT22;25629;51.444;-2.606;2022-12-18T08:40:36;3.10;99.90
39951;DHT22;25629;51.444;-2.606;2022-12-18T08:43:02;3.10;99.90
39951;DHT22;25629;51.444;-2.606;2022-12-18T08:45:46;3.10;99.90
39951;DHT22;25629;51.444;-2.606;2022-12-18T08:48:11;3.10;99.90
39951;DHT22;25629;51.444;-2.606;2022-12-18T08:50:37;3.10;99.90
39951;DHT22;25629;51.444;-2.606;2022-12-18T08:53:03;3.10;99.90
39951;DHT22;25629;51.444;-2.606;2022-12-18T08:55:29;3.10;99.90
39951;DHT22;25629;51.444;-2.606;2022-12-18T08:57:54;3.20;99.90
39951;DHT22;25629;51.444;-2.606;2022-12-18T09:00:20;3.10;99.90
39951;DHT22;25629;51.444;-2.606;2022-12-18T09:02:46;3.10;99.90
39951;DHT22;25629;51.444;-2.606;2022-12-18T09:05:12;3.10;99.90
39951;DHT22;25629;51.444;-2.606;2022-12-18T09:07:37;3.10;99.90
39951;DHT22;25629;51.444;-2.606;2022-12-18T09:10:03;3.20;99.90
39951;DHT22;25629;51.444;-2.606;2022-12-18T09:12:29;3.20;99.90
39951;DHT22;25629;51.444;-2.606;2022-12-18T09:14:55;3.20;99.90
39951;DHT22;25629;51.444;-2.606;2022-12-18T09:17:21;3.20;99.90
39951;DHT22;25629;51.444;-2.606;2022-12-18T09:19:47;3.20;99.90
39951;DHT22;25629;51.444;-2.606;2022-12-18T09:22:13;3.20;99.90
39951;DHT22;25629;51.444;-2.606;2022-12-18T09:24:39;3.20;99.90
39951;DHT22;25629;51.444;-2.606;2022-12-18T09:27:04;3.20;99.90
39951;DHT22;25629;51.444;-2.606;2022-12-18T09:29:30;3.30;99.90
39951;DHT22;25629;51.444;-2.606;2022-12-18T09:31:56;3.30;99.90
39951;DHT22;25629;51.444;-2.606;2022-12-18T09:34:22;3.30;99.90
39951;DHT22;25629;51.444;-2.606;2022-12-18T09:36:48;3.30;99.90
39951;DHT22;25629;51.444;-2.606;2022-12-18T09:39:14;3.30;99.90
39951;DHT22;25629;51.444;-2.606;2022-12-18T09:41:46;3.40;99.90
39951;DHT22;25629;51.444;-2.606;2022-12-18T09:47:10;3.40;99.90
39951;DHT22;25629;51.444;-2.606;2022-12-18T09:49:45;3.40;99.90
39951;DHT22;25629;51.444;-2.606;2022-12-18T09:57:57;3.40;99.90
39951;DHT22;25629;51.444;-2.606;2022-12-18T10:00:25;3.50;99.90
39951;DHT22;25629;51.444;-2.606;2022-12-18T10:02:54;3.50;99.90
39951;DHT22;25629;51.444;-2.606;2022-12-18T10:08:51;3.60;99.90
39951;DHT22;25629;51.444;-2.606;2022-12-18T10:19:40;3.70;99.90
39951;DHT22;25629;51.444;-2.606;2022-12-18T10:25:50;3.70;99.90
39951;DHT22;25629;51.444;-2.606;2022-12-18T10:28:19;3.70;99.90
39951;DHT22;25629;51.444;-2.606;2022-12-18T10:30:45;3.70;99.90
39951;DHT22;25629;51.444;-2.606;2022-12-18T10:33:19;3.70;99.90
39951;DHT22;25629;51.444;-2.606;2022-12-18T10:35:45;3.80;99.90
39951;DHT22;25629;51.444;-2.606;2022-12-18T10:43:37;3.70;99.90
39951;DHT22;25629;51.444;-2.606;2022-12-18T10:51:03;3.80;99.90
39951;DHT22;25629;51.444;-2.606;2022-12-18T10:53:29;3.80;99.90
39951;DHT22;25629;51.444;-2.606;2022-12-18T10:55:58;3.90;99.90
39951;DHT22;25629;51.444;-2.606;2022-12-18T11:01:13;3.90;99.90
39951;DHT22;25629;51.444;-2.606;2022-12-18T11:06:22;3.90;99.90
39951;DHT22;25629;51.444;-2.606;2022-12-18T11:09:19;4.00;99.90
39951;DHT22;25629;51.444;-2.606;2022-12-18T11:12:02;3.90;99.90
39951;DHT22;25629;51.444;-2.606;2022-12-18T11:14:30;3.90;99.90
39951;DHT22;25629;51.444;-2.606;2022-12-18T11:16:58;4.00;99.90
39951;DHT22;25629;51.444;-2.606;2022-12-18T11:19:53;4.00;99.90
39951;DHT22;25629;51.444;-2.606;2022-12-18T11:22:23;4.00;99.90
39951;DHT22;25629;51.444;-2.606;2022-12-18T11:24:58;4.10;99.90
39951;DHT22;25629;51.444;-2.606;2022-12-18T11:27:25;4.10;99.90
39951;DHT22;25629;51.444;-2.606;2022-12-18T11:29:51;4.10;99.90
39951;DHT22;25629;51.444;-2.606;2022-12-18T11:32:35;4.00;99.90
39951;DHT22;25629;51.444;-2.606;2022-12-18T11:35:16;4.10;99.90
39951;DHT22;25629;51.444;-2.606;2022-12-18T11:37:47;4.10;99.90
39951;DHT22;25629;51.444;-2.606;2022-12-18T11:40:22;4.20;99.90
39951;DHT22;25629;51.444;-2.606;2022-12-18T11:43:13;4.20;99.90
39951;DHT22;25629;51.444;-2.606;2022-12-18T11:45:47;4.20;99.90
39951;DHT22;25629;51.444;-2.606;2022-12-18T11:48:27;4.20;99.90
39951;DHT22;25629;51.444;-2.606;2022-12-18T11:50:58;4.30;99.90
39951;DHT22;25629;51.444;-2.606;2022-12-18T11:53:26;4.30;99.90
39951;DHT22;25629;51.444;-2.606;2022-12-18T11:56:08;4.40;99.90
39951;DHT22;25629;51.444;-2.606;2022-12-18T12:18:06;4.60;99.90
39951;DHT22;25629;51.444;-2.606;2022-12-18T12:26:20;4.70;99.90
39951;DHT22;25629;51.444;-2.606;2022-12-18T12:29:04;4.80;99.90
39951;DHT22;25629;51.444;-2.606;2022-12-18T12:39:44;4.90;99.90
39951;DHT22;25629;51.444;-2.606;2022-12-18T12:42:18;4.90;99.90
39951;DHT22;25629;51.444;-2.606;2022-12-18T12:45:06;4.90;99.90
39951;DHT22;25629;51.444;-2.606;2022-12-18T12:47:42;4.90;99.90
39951;DHT22;25629;51.444;-2.606;2022-12-18T12:50:17;4.90;99.90
39951;DHT22;25629;51.444;-2.606;2022-12-18T12:52:47;5.00;99.90
39951;DHT22;25629;51.444;-2.606;2022-12-18T12:55:22;5.00;99.90
39951;DHT22;25629;51.444;-2.606;2022-12-18T12:58:02;5.00;99.90
39951;DHT22;25629;51.444;-2.606;2022-12-18T13:00:49;5.10;99.90
39951;DHT22;25629;51.444;-2.606;2022-12-18T13:08:59;5.20;99.90
39951;DHT22;25629;51.444;-2.606;2022-12-18T13:11:42;5.20;99.90
39951;DHT22;25629;51.444;-2.606;2022-12-18T13:14:28;5.20;99.90
39951;DHT22;25629;51.444;-2.606;2022-12-18T13:19:40;5.30;99.90
39951;DHT22;25629;51.444;-2.606;2022-12-18T13:22:23;5.30;99.90
39951;DHT22;25629;51.444;-2.606;2022-12-18T13:24:50;5.40;99.90
39951;DHT22;25629;51.444;-2.606;2022-12-18T13:38:39;5.70;99.90
39951;DHT22;25629;51.444;-2.606;2022-12-18T13:43:47;5.80;99.90
39951;DHT22;25629;51.444;-2.606;2022-12-18T13:48:57;5.90;99.90
39951;DHT22;25629;51.444;-2.606;2022-12-18T13:51:24;5.90;99.90
39951;DHT22;25629;51.444;-2.606;2022-12-18T13:53:59;6.00;99.90
39951;DHT22;25629;51.444;-2.606;2022-12-18T13:56:32;6.10;99.90
39951;DHT22;25629;51.444;-2.606;2022-12-18T13:59:14;6.20;99.90
39951;DHT22;25629;51.444;-2.606;2022-12-18T14:04:34;6.50;99.90
39951;DHT22;25629;51.444;-2.606;2022-12-18T14:07:05;6.60;99.90
39951;DHT22;25629;51.444;-2.606;2022-12-18T14:09:37;6.70;99.90
39951;DHT22;25629;51.444;-2.606;2022-12-18T14:12:05;6.90;99.90
39951;DHT22;25629;51.444;-2.606;2022-12-18T14:14:51;7.10;99.90
39951;DHT22;25629;51.444;-2.606;2022-12-18T14:17:18;7.20;99.90
39951;DHT22;25629;51.444;-2.606;2022-12-18T14:19:46;7.40;99.90
39951;DHT22;25629;51.444;-2.606;2022-12-18T14:22:24;7.50;99.90
39951;DHT22;25629;51.444;-2.606;2022-12-18T14:27:45;7.80;99.90
39951;DHT22;25629;51.444;-2.606;2022-12-18T14:33:17;8.00;99.90
39951;DHT22;25629;51.444;-2.606;2022-12-18T14:36:05;8.20;99.90
39951;DHT22;25629;51.444;-2.606;2022-12-18T14:38:32;8.20;99.90
39951;DHT22;25629;51.444;-2.606;2022-12-18T14:41:01;8.20;99.90
39951;DHT22;25629;51.444;-2.606;2022-12-18T14:43:28;8.30;99.90
39951;DHT22;25629;51.444;-2.606;2022-12-18T14:45:55;8.30;99.90
39951;DHT22;25629;51.444;-2.606;2022-12-18T14:51:00;8.40;99.90
39951;DHT22;25629;51.444;-2.606;2022-12-18T14:53:36;8.60;99.90
39951;DHT22;25629;51.444;-2.606;2022-12-18T14:56:03;8.60;99.90
39951;DHT22;25629;51.444;-2.606;2022-12-18T14:58:36;8.70;99.90
39951;DHT22;25629;51.444;-2.606;2022-12-18T15:01:02;8.70;99.90
39951;DHT22;25629;51.444;-2.606;2022-12-18T15:03:28;8.80;99.90
39951;DHT22;25629;51.444;-2.606;2022-12-18T15:05:53;8.80;99.90
39951;DHT22;25629;51.444;-2.606;2022-12-18T15:08:45;8.80;99.90
39951;DHT22;25629;51.444;-2.606;2022-12-18T15:11:43;8.90;99.90
39951;DHT22;25629;51.444;-2.606;2022-12-18T15:14:32;8.90;99.90
39951;DHT22;25629;51.444;-2.606;2022-12-18T15:17:00;8.90;99.90
39951;DHT22;25629;51.444;-2.606;2022-12-18T15:19:48;9.00;99.90
39951;DHT22;25629;51.444;-2.606;2022-12-18T15:22:26;9.00;99.90
39951;DHT22;25629;51.444;-2.606;2022-12-18T15:24:54;9.10;99.90
39951;DHT22;25629;51.444;-2.606;2022-12-18T15:32:37;9.10;99.90
39951;DHT22;25629;51.444;-2.606;2022-12-18T15:35:16;9.10;99.90
39951;DHT22;25629;51.444;-2.606;2022-12-18T15:37:43;9.10;99.90
39951;DHT22;25629;51.444;-2.606;2022-12-18T15:40:16;9.20;99.90
39951;DHT22;25629;51.444;-2.606;2022-12-18T15:42:43;9.20;99.90
39951;DHT22;25629;51.444;-2.606;2022-12-18T15:45:28;9.20;99.90
39951;DHT22;25629;51.444;-2.606;2022-12-18T15:47:53;9.20;99.90
39951;DHT22;25629;51.444;-2.606;2022-12-18T15:50:19;9.20;99.90
39951;DHT22;25629;51.444;-2.606;2022-12-18T15:52:47;9.20;99.90
39951;DHT22;25629;51.444;-2.606;2022-12-18T15:55:15;9.20;99.90
39951;DHT22;25629;51.444;-2.606;2022-12-18T15:58:00;9.20;99.90
39951;DHT22;25629;51.444;-2.606;2022-12-18T16:00:26;9.20;99.90
39951;DHT22;25629;51.444;-2.606;2022-12-18T16:02:52;9.20;99.90
39951;DHT22;25629;51.444;-2.606;2022-12-18T16:05:19;9.20;99.90
39951;DHT22;25629;51.444;-2.606;2022-12-18T16:07:45;9.30;99.90
39951;DHT22;25629;51.444;-2.606;2022-12-18T16:10:13;9.30;99.90
39951;DHT22;25629;51.444;-2.606;2022-12-18T16:12:39;9.30;99.90
39951;DHT22;25629;51.444;-2.606;2022-12-18T16:15:06;9.30;99.90
39951;DHT22;25629;51.444;-2.606;2022-12-18T16:17:32;9.40;99.90
39951;DHT22;25629;51.444;-2.606;2022-12-18T16:19:58;9.30;99.90
39951;DHT22;25629;51.444;-2.606;2022-12-18T16:22:26;9.40;99.90
39951;DHT22;25629;51.444;-2.606;2022-12-18T16:24:54;9.40;99.90
39951;DHT22;25629;51.444;-2.606;2022-12-18T16:27:21;9.40;99.90
39951;DHT22;25629;51.444;-2.606;2022-12-18T16:29:47;9.40;99.90
39951;DHT22;25629;51.444;-2.606;2022-12-18T16:32:18;9.40;99.90
39951;DHT22;25629;51.444;-2.606;2022-12-18T16:34:44;9.40;99.90
39951;DHT22;25629;51.444;-2.606;2022-12-18T16:37:12;9.40;99.90
39951;DHT22;25629;51.444;-2.606;2022-12-18T16:39:38;9.50;99.90
39951;DHT22;25629;51.444;-2.606;2022-12-18T16:42:09;9.50;99.90
39951;DHT22;25629;51.444;-2.606;2022-12-18T16:44:35;9.50;99.90
39951;DHT22;25629;51.444;-2.606;2022-12-18T16:47:00;9.50;99.90
39951;DHT22;25629;51.444;-2.606;2022-12-18T16:49:27;9.50;99.90
39951;DHT22;25629;51.444;-2.606;2022-12-18T16:51:54;9.50;99.90
39951;DHT22;25629;51.444;-2.606;2022-12-18T16:54:20;9.60;99.90
39951;DHT22;25629;51.444;-2.606;2022-12-18T16:56:45;9.60;99.90
39951;DHT22;25629;51.444;-2.606;2022-12-18T16:59:14;9.70;99.90
39951;DHT22;25629;51.444;-2.606;2022-12-18T17:01:40;9.70;99.90
39951;DHT22;25629;51.444;-2.606;2022-12-18T17:04:07;9.70;99.90
39951;DHT22;25629;51.444;-2.606;2022-12-18T17:06:35;9.70;99.90
39951;DHT22;25629;51.444;-2.606;2022-12-18T17:09:06;9.70;99.90
39951;DHT22;25629;51.444;-2.606;2022-12-18T17:11:34;9.80;99.90
39951;DHT22;25629;51.444;-2.606;2022-12-18T17:14:08;9.80;99.90
39951;DHT22;25629;51.444;-2.606;2022-12-18T17:16:34;9.80;99.90
39951;DHT22;25629;51.444;-2.606;2022-12-18T17:19:00;9.80;99.90
39951;DHT22;25629;51.444;-2.606;2022-12-18T17:21:26;9.90;99.90
39951;DHT22;25629;51.444;-2.606;2022-12-18T17:23:52;9.90;99.90
39951;DHT22;25629;51.444;-2.606;2022-12-18T17:26:17;9.90;99.90
39951;DHT22;25629;51.444;-2.606;2022-12-18T17:28:43;10.00;99.90
39951;DHT22;25629;51.444;-2.606;2022-12-18T17:31:20;10.00;99.90
39951;DHT22;25629;51.444;-2.606;2022-12-18T17:33:47;10.00;99.90
39951;DHT22;25629;51.444;-2.606;2022-12-18T17:36:14;10.00;99.90
39951;DHT22;25629;51.444;-2.606;2022-12-18T17:38:40;10.10;99.90
39951;DHT22;25629;51.444;-2.606;2022-12-18T17:41:07;10.10;99.90
39951;DHT22;25629;51.444;-2.606;2022-12-18T17:43:34;10.10;99.90
39951;DHT22;25629;51.444;-2.606;2022-12-18T17:46:05;10.20;99.90
39951;DHT22;25629;51.444;-2.606;2022-12-18T17:48:31;10.20;99.90
39951;DHT22;25629;51.444;-2.606;2022-12-18T17:51:01;10.30;99.90
39951;DHT22;25629;51.444;-2.606;2022-12-18T17:53:27;10.30;99.90
39951;DHT22;25629;51.444;-2.606;2022-12-18T17:55:54;10.30;99.90
39951;DHT22;25629;51.444;-2.606;2022-12-18T17:58:20;10.40;99.90